createdAt,value
2022-10-09T00:01:20.056Z,96084.97
2022-10-09T00:03:52.173Z,96076.72
2022-10-09T00:06:22.870Z,96063.28
2022-10-09T00:08:51.800Z,96057.59
2022-10-09T00:11:22.159Z,96050.03
2022-10-09T00:13:50.749Z,96035.78
2022-10-09T00:16:20.610Z,96036.84
2022-10-09T00:18:50.515Z,96021.84
2022-10-09T00:21:22.509Z,96017.69
2022-10-09T00:23:51.392Z,96007.59
2022-10-09T00:26:19.951Z,96004.25
2022-10-09T00:28:48.191Z,95996.69
2022-10-09T00:31:16.736Z,95988.34
2022-10-09T00:33:44.593Z,95984.28
2022-10-09T00:36:16.121Z,95970.00
2022-10-09T00:38:44.483Z,95960.84
2022-10-09T00:41:15.342Z,95953.44
2022-10-09T00:43:49.170Z,95946.81
2022-10-09T00:46:28.584Z,95939.28
2022-10-09T00:49:05.223Z,95929.22
2022-10-09T00:51:37.517Z,95930.13
2022-10-09T00:54:08.646Z,95912.63
2022-10-09T00:56:36.658Z,95896.75
2022-10-09T00:59:06.213Z,95889.31
2022-10-09T01:01:34.069Z,95883.53
2022-10-09T01:04:01.915Z,95878.56
2022-10-09T01:06:44.138Z,95876.13
2022-10-09T01:09:16.352Z,95873.59
2022-10-09T01:11:51.652Z,95871.03
2022-10-09T01:14:26.472Z,95872.88
2022-10-09T01:17:03.370Z,95866.16
2022-10-09T01:19:48.950Z,95846.00
2022-10-09T01:22:33.750Z,95831.03
2022-10-09T01:25:06.545Z,95824.56
2022-10-09T01:27:37.768Z,95800.13
2022-10-09T01:30:08.297Z,95793.53
2022-10-09T01:32:40.102Z,95785.28
2022-10-09T01:35:10.181Z,95766.06
2022-10-09T01:37:40.205Z,95756.94
2022-10-09T01:40:10.264Z,95747.78
2022-10-09T01:42:39.718Z,95742.00
2022-10-09T01:45:08.349Z,95743.72
2022-10-09T01:47:36.253Z,95738.63
2022-10-09T01:50:10.065Z,95742.13
2022-10-09T01:52:46.151Z,95733.75
2022-10-09T01:55:27.998Z,95720.31
2022-10-09T01:58:05.365Z,95709.56
2022-10-09T02:00:38.029Z,95700.41
2022-10-09T02:03:07.598Z,95685.38
2022-10-09T02:05:35.800Z,95680.50
2022-10-09T02:08:04.044Z,95667.19
2022-10-09T02:10:33.718Z,95653.88
2022-10-09T02:13:02.952Z,95642.31
2022-10-09T02:15:39.114Z,95634.81
2022-10-09T02:18:12.202Z,95630.66
2022-10-09T02:20:45.979Z,95616.38
2022-10-09T02:23:15.463Z,95615.72
2022-10-09T02:25:43.977Z,95613.16
2022-10-09T02:28:13.270Z,95612.34
2022-10-09T02:30:49.527Z,95613.97
2022-10-09T02:33:17.377Z,95613.16
2022-10-09T02:35:45.998Z,95616.50
2022-10-09T02:41:10.071Z,95621.47
2022-10-09T02:43:39.280Z,95619.88
2022-10-09T02:46:07.392Z,95625.78
2022-10-09T02:48:36.159Z,95624.97
2022-10-09T02:51:04.131Z,95617.31
2022-10-09T02:53:31.976Z,95607.38
2022-10-09T02:55:59.939Z,95601.69
2022-10-09T02:58:27.956Z,95596.63
2022-10-09T03:00:57.145Z,95589.09
2022-10-09T03:03:50.727Z,95587.47
2022-10-09T03:06:24.035Z,95579.16
2022-10-09T03:08:53.289Z,95567.47
2022-10-09T03:11:24.559Z,95569.31
2022-10-09T03:13:52.649Z,95562.63
2022-10-09T03:16:24.903Z,95556.84
2022-10-09T03:18:54.075Z,95548.63
2022-10-09T03:21:23.750Z,95528.59
2022-10-09T03:23:53.559Z,95505.13
2022-10-09T03:26:23.997Z,95497.03
2022-10-09T03:28:53.839Z,95482.16
2022-10-09T03:31:50.488Z,95462.94
2022-10-09T03:34:13.196Z,95454.63
2022-10-09T03:36:42.274Z,95455.56
2022-10-09T03:39:10.374Z,95447.22
2022-10-09T03:41:38.356Z,95441.31
2022-10-09T03:44:06.496Z,95437.28
2022-10-09T03:46:35.660Z,95428.97
2022-10-09T03:49:03.550Z,95426.53
2022-10-09T03:51:31.367Z,95424.09
2022-10-09T03:53:59.250Z,95417.41
2022-10-09T03:56:27.048Z,95410.84
2022-10-09T03:58:54.960Z,95401.59
2022-10-09T04:01:22.821Z,95406.69
2022-10-09T04:03:52.033Z,95405.06
2022-10-09T04:06:19.825Z,95405.06
2022-10-09T04:08:47.652Z,95399.97
2022-10-09T04:11:15.448Z,95402.53
2022-10-09T04:13:43.747Z,95400.88
2022-10-09T04:16:12.697Z,95398.47
2022-10-09T04:18:41.499Z,95385.88
2022-10-09T04:21:10.975Z,95375.81
2022-10-09T04:23:38.742Z,95371.75
2022-10-09T04:26:06.947Z,95364.38
2022-10-09T04:28:35.936Z,95351.91
2022-10-09T04:31:04.198Z,95341.16
2022-10-09T04:33:32.026Z,95329.50
2022-10-09T04:35:59.835Z,95323.72
2022-10-09T04:38:29.083Z,95308.72
2022-10-09T04:40:58.003Z,95303.75
2022-10-09T04:43:26.249Z,95290.44
2022-10-09T04:45:54.223Z,95282.16
2022-10-09T04:48:22.501Z,95270.63
2022-10-09T04:50:50.368Z,95266.44
2022-10-09T04:53:18.125Z,95268.19
2022-10-09T04:55:47.610Z,95257.34
2022-10-09T04:58:15.539Z,95249.03
2022-10-09T05:00:45.190Z,95242.34
2022-10-09T05:03:13.614Z,95234.13
2022-10-09T05:05:41.599Z,95237.59
2022-10-09T05:08:09.442Z,95219.13
2022-10-09T05:10:37.212Z,95205.84
2022-10-09T05:13:06.748Z,95206.78
2022-10-09T05:15:37.600Z,95204.34
2022-10-09T05:18:06.155Z,95190.97
2022-10-09T05:20:34.006Z,95184.38
2022-10-09T05:23:01.759Z,95175.28
2022-10-09T05:25:29.540Z,95171.13
2022-10-09T05:27:57.287Z,95162.81
2022-10-09T05:30:26.481Z,95165.38
2022-10-09T05:32:54.210Z,95165.38
2022-10-09T05:35:22.047Z,95162.81
2022-10-09T05:37:49.794Z,95154.50
2022-10-09T05:40:17.776Z,95153.81
2022-10-09T05:42:45.830Z,95157.16
2022-10-09T05:45:14.032Z,95154.63
2022-10-09T05:47:43.200Z,95158.91
2022-10-09T05:50:10.982Z,95152.09
2022-10-09T05:52:39.987Z,95147.94
2022-10-09T05:55:08.639Z,95140.53
2022-10-09T05:57:36.499Z,95134.78
2022-10-09T06:00:05.509Z,95130.63
2022-10-09T06:02:40.142Z,95125.69
2022-10-09T06:05:10.164Z,95132.25
2022-10-09T06:07:38.259Z,95136.38
2022-10-09T06:10:06.768Z,95137.19
2022-10-09T06:12:34.773Z,95152.34
2022-10-09T06:15:02.518Z,95155.56
2022-10-09T06:17:30.343Z,95167.19
2022-10-09T06:19:58.123Z,95161.31
2022-10-09T06:22:27.482Z,95174.59
2022-10-09T06:24:55.370Z,95181.28
2022-10-09T06:27:23.215Z,95189.47
2022-10-09T06:29:51.085Z,95203.69
2022-10-09T06:32:18.852Z,95210.38
2022-10-09T06:34:46.636Z,95226.97
2022-10-09T06:37:14.470Z,95241.06
2022-10-09T06:39:43.570Z,95254.34
2022-10-09T06:42:11.457Z,95273.50
2022-10-09T06:44:50.761Z,95294.31
2022-10-09T06:47:18.544Z,95312.53
2022-10-09T06:49:46.331Z,95334.13
2022-10-09T06:52:14.181Z,95352.50
2022-10-09T06:54:43.367Z,95378.25
2022-10-09T06:57:11.170Z,95400.66
2022-10-09T06:59:38.979Z,95429.78
2022-10-09T07:02:07.197Z,95454.63
2022-10-09T07:04:35.247Z,95477.88
2022-10-09T07:07:03.191Z,95512.09
2022-10-09T07:09:31.076Z,95524.47
2022-10-09T07:12:00.271Z,95553.63
2022-10-09T07:14:30.255Z,95590.28
2022-10-09T07:16:58.116Z,95626.00
2022-10-09T07:19:26.167Z,95647.53
2022-10-09T07:21:54.053Z,95681.66
2022-10-09T07:24:24.528Z,95712.44
2022-10-09T07:26:53.480Z,95752.66
2022-10-09T07:29:22.582Z,95776.75
2022-10-09T07:31:50.613Z,95809.97
2022-10-09T07:34:18.386Z,95846.69
2022-10-09T07:36:46.372Z,95877.50
2022-10-09T07:39:14.126Z,95914.13
2022-10-09T07:41:42.017Z,95938.34
2022-10-09T07:44:10.221Z,95981.03
2022-10-09T07:46:39.511Z,96012.66
2022-10-09T07:49:07.264Z,96046.88
2022-10-09T07:51:35.173Z,96084.34
2022-10-09T07:54:03.468Z,96117.75
2022-10-09T07:56:33.098Z,96159.53
2022-10-09T07:59:03.722Z,96196.22
2022-10-09T08:01:33.260Z,96231.38
2022-10-09T08:04:03.230Z,96269.00
2022-10-09T08:06:32.104Z,96300.75
2022-10-09T08:09:01.597Z,96345.00
2022-10-09T08:11:30.891Z,96399.38
2022-10-09T08:13:59.020Z,96448.78
2022-10-09T08:16:28.178Z,96487.25
2022-10-09T08:18:58.199Z,96524.00
2022-10-09T08:21:29.044Z,96558.34
2022-10-09T08:23:58.299Z,96599.41
2022-10-09T08:26:29.050Z,96629.56
2022-10-09T08:28:59.018Z,96687.28
2022-10-09T08:31:28.097Z,96740.97
2022-10-09T08:33:57.687Z,96776.06
2022-10-09T08:36:27.701Z,96828.94
2022-10-09T08:38:56.384Z,96880.13
2022-10-09T08:41:45.843Z,96939.78
2022-10-09T08:44:25.238Z,96989.22
2022-10-09T08:47:03.672Z,97040.44
2022-10-09T08:49:40.599Z,97079.88
2022-10-09T08:52:20.474Z,97117.69
2022-10-09T08:54:48.639Z,97151.19
2022-10-09T08:57:17.972Z,97203.34
2022-10-09T08:59:45.949Z,97236.91
2022-10-09T09:02:31.402Z,97287.56
2022-10-09T09:05:17.577Z,97342.97
2022-10-09T09:07:56.027Z,97386.59
2022-10-09T09:10:35.799Z,97447.38
2022-10-09T09:13:15.947Z,97513.78
2022-10-09T09:15:49.904Z,97558.47
2022-10-09T09:18:37.622Z,97605.63
2022-10-09T09:21:19.083Z,97655.28
2022-10-09T09:23:49.102Z,97704.09
2022-10-09T09:26:19.284Z,97748.88
2022-10-09T09:28:50.257Z,97798.56
2022-10-09T09:31:22.370Z,97851.75
2022-10-09T09:33:59.303Z,97902.28
2022-10-09T09:36:32.897Z,97959.00
2022-10-09T09:39:49.952Z,98017.19
2022-10-09T09:41:50.629Z,98092.50
2022-10-09T09:44:18.570Z,98158.25
2022-10-09T09:46:54.005Z,98211.56
2022-10-09T09:49:27.152Z,98260.47
2022-10-09T09:51:57.435Z,98323.16
2022-10-09T09:54:29.174Z,98374.84
2022-10-09T09:57:12.893Z,98422.13
2022-10-09T09:59:43.003Z,98493.28
2022-10-09T10:02:14.473Z,98561.16
2022-10-09T10:04:51.169Z,98594.16
2022-10-09T10:07:29.776Z,98649.25
2022-10-09T10:10:08.578Z,98689.03
2022-10-09T10:12:42.401Z,98741.66
2022-10-09T10:15:19.942Z,98800.97
2022-10-09T10:17:49.542Z,98878.22
2022-10-09T10:20:18.836Z,98940.13
2022-10-09T10:22:52.364Z,98981.75
2022-10-09T10:25:25.388Z,99036.97
2022-10-09T10:27:58.514Z,99094.78
2022-10-09T10:30:26.523Z,99143.19
2022-10-09T10:32:59.858Z,99205.31
2022-10-09T10:35:30.618Z,99255.38
2022-10-09T10:38:06.197Z,99315.78
2022-10-09T10:40:37.877Z,99372.00
2022-10-09T10:43:17.437Z,99413.66
2022-10-09T10:45:59.326Z,99468.22
2022-10-09T10:48:30.626Z,99516.75
2022-10-09T10:51:06.597Z,99561.91
2022-10-09T10:53:58.001Z,99611.38
2022-10-09T10:56:31.784Z,99674.38
2022-10-09T10:59:17.572Z,99718.75
2022-10-09T11:01:55.062Z,99777.63
2022-10-09T11:04:37.967Z,99825.41
2022-10-09T11:07:09.809Z,99857.84
2022-10-09T11:09:48.733Z,99905.56
2022-10-09T11:12:43.270Z,99975.66
2022-10-09T11:15:21.125Z,100019.97
2022-10-09T11:18:00.136Z,100055.03
2022-10-09T11:21:06.566Z,100094.28
2022-10-09T11:23:49.471Z,100128.44
2022-10-09T11:26:30.912Z,100167.91
2022-10-09T11:29:03.829Z,100188.28
2022-10-09T11:31:38.432Z,100209.72
2022-10-09T11:34:13.448Z,100231.00
2022-10-09T11:36:42.874Z,100255.00
2022-10-09T11:39:15.389Z,100291.84
2022-10-09T11:41:45.246Z,100308.94
2022-10-09T11:44:42.792Z,100331.16
2022-10-09T11:47:21.258Z,100356.81
2022-10-09T11:50:04.090Z,100378.22
2022-10-09T11:52:43.564Z,100425.28
2022-10-09T11:55:20.296Z,100450.06
2022-10-09T11:57:49.035Z,100471.53
2022-10-09T12:00:30.806Z,100494.63
2022-10-09T12:03:01.459Z,100516.03
2022-10-09T12:05:39.742Z,100542.56
2022-10-09T12:08:12.950Z,100569.09
2022-10-09T12:10:51.461Z,100593.97
2022-10-09T12:13:44.101Z,100617.94
2022-10-09T12:16:41.380Z,100653.03
2022-10-09T12:19:17.604Z,100683.88
2022-10-09T12:21:56.492Z,100701.03
2022-10-09T12:24:27.756Z,100729.34
2022-10-09T12:26:57.880Z,100759.44
2022-10-09T12:29:30.290Z,100780.06
2022-10-09T12:32:00.433Z,100770.50
2022-10-09T12:34:32.182Z,100791.06
2022-10-09T12:37:12.572Z,100818.56
2022-10-09T12:39:41.080Z,100841.78
2022-10-09T12:42:16.707Z,100858.88
2022-10-09T12:44:45.602Z,100864.84
2022-10-09T12:47:21.750Z,100877.72
2022-10-09T12:50:19.923Z,100903.47
2022-10-09T12:52:53.852Z,100915.44
2022-10-09T12:55:35.362Z,100925.69
2022-10-09T12:58:12.551Z,100939.44
2022-10-09T13:00:41.095Z,100930.00
2022-10-09T13:03:24.229Z,100938.59
2022-10-09T13:05:53.014Z,100958.28
2022-10-09T13:08:26.882Z,100962.50
2022-10-09T13:10:55.727Z,100983.19
2022-10-09T13:13:28.372Z,100977.97
2022-10-09T13:16:01.733Z,100958.16
2022-10-09T13:18:30.925Z,100963.34
2022-10-09T13:21:00.680Z,100956.47
2022-10-09T13:23:31.405Z,100967.56
2022-10-09T13:26:03.278Z,100984.75
2022-10-09T13:28:32.057Z,100994.25
2022-10-09T13:31:07.560Z,100994.09
2022-10-09T13:33:36.958Z,101013.97
2022-10-09T13:36:13.099Z,101017.25
2022-10-09T13:38:41.146Z,101037.06
2022-10-09T13:41:14.376Z,101055.06
2022-10-09T13:43:42.658Z,101085.19
2022-10-09T13:46:10.688Z,101075.63
2022-10-09T13:48:40.464Z,101054.16
2022-10-09T13:51:08.497Z,101046.47
2022-10-09T13:53:36.323Z,101030.94
2022-10-09T13:56:04.505Z,101032.63
2022-10-09T13:58:32.499Z,101028.34
2022-10-09T14:01:00.551Z,101017.13
2022-10-09T14:03:28.821Z,101008.53
2022-10-09T14:06:01.088Z,100980.16
2022-10-09T14:08:29.352Z,100956.97
2022-10-09T14:11:00.441Z,100929.53
2022-10-09T14:13:28.842Z,100898.63
2022-10-09T14:15:57.295Z,100848.81
2022-10-09T14:18:25.231Z,100798.97
2022-10-09T14:20:53.048Z,100750.94
2022-10-09T14:23:22.162Z,100701.13
2022-10-09T14:25:50.081Z,100669.31
2022-10-09T14:28:17.947Z,100637.72
2022-10-09T14:30:45.828Z,100578.50
2022-10-09T14:33:13.708Z,100539.97
2022-10-09T14:35:41.765Z,100498.75
2022-10-09T14:38:09.533Z,100466.16
2022-10-09T14:40:44.094Z,100425.09
2022-10-09T14:43:12.477Z,100392.53
2022-10-09T14:45:40.307Z,100361.69
2022-10-09T14:48:08.327Z,100339.47
2022-10-09T14:50:37.382Z,100311.09
2022-10-09T14:53:05.180Z,100288.03
2022-10-09T14:55:35.431Z,100259.78
2022-10-09T14:58:04.609Z,100252.22
2022-10-09T15:00:32.416Z,100229.00
2022-10-09T15:03:00.222Z,100193.88
2022-10-09T15:05:28.382Z,100166.50
2022-10-09T15:07:56.191Z,100151.09
2022-10-09T15:10:24.000Z,100125.38
2022-10-09T15:12:51.863Z,100104.88
2022-10-09T15:15:20.976Z,100083.50
2022-10-09T15:17:49.122Z,100059.63
2022-10-09T15:20:17.310Z,100033.84
2022-10-09T15:25:37.173Z,99996.31
2022-10-09T15:28:06.125Z,99986.94
2022-10-09T15:30:35.331Z,99954.38
2022-10-09T15:33:07.434Z,99947.69
2022-10-09T15:35:39.191Z,99920.31
2022-10-09T15:38:07.330Z,99898.03
2022-10-09T15:40:44.969Z,99878.38
2022-10-09T15:43:13.048Z,99851.94
2022-10-09T15:45:42.279Z,99826.31
2022-10-09T15:48:16.506Z,99796.38
2022-10-09T15:50:46.473Z,99768.28
2022-10-09T15:53:15.173Z,99745.28
2022-10-09T15:55:45.077Z,99706.06
2022-10-09T15:58:13.309Z,99689.03
2022-10-09T16:00:44.376Z,99654.84
2022-10-09T16:03:12.174Z,99629.25
2022-10-09T16:05:41.028Z,99589.97
2022-10-09T16:08:08.894Z,99559.38
2022-10-09T16:10:46.408Z,99516.69
2022-10-09T16:13:16.688Z,99469.66
2022-10-09T16:15:47.498Z,99442.53
2022-10-09T16:18:16.486Z,99414.41
2022-10-09T16:20:44.733Z,99383.78
2022-10-09T16:23:12.931Z,99362.56
2022-10-09T16:25:42.888Z,99335.31
2022-10-09T16:28:13.638Z,99304.69
2022-10-09T16:30:43.863Z,99276.56
2022-10-09T16:33:13.651Z,99247.63
2022-10-09T16:35:41.603Z,99224.69
2022-10-09T16:38:09.445Z,99187.19
2022-10-09T16:43:34.514Z,99127.75
2022-10-09T16:46:10.682Z,99092.84
2022-10-09T16:48:40.159Z,99054.59
2022-10-09T16:51:12.359Z,99028.34
2022-10-09T16:53:40.615Z,99001.19
2022-10-09T16:56:10.190Z,98970.53
2022-10-09T16:58:39.782Z,98942.47
2022-10-09T17:01:10.168Z,98910.16
2022-10-09T17:03:41.315Z,98879.72
2022-10-09T17:06:11.597Z,98850.84
2022-10-09T17:08:39.853Z,98821.03
2022-10-09T17:11:08.780Z,98801.66
2022-10-09T17:13:37.612Z,98775.38
2022-10-09T17:16:07.477Z,98743.09
2022-10-09T17:18:36.208Z,98704.13
2022-10-09T17:21:07.371Z,98656.53
2022-10-09T17:23:35.989Z,98632.97
2022-10-09T17:26:07.686Z,98600.72
2022-10-09T17:28:36.073Z,98564.22
2022-10-09T17:31:04.980Z,98533.75
2022-10-09T17:33:32.943Z,98497.38
2022-10-09T17:36:02.934Z,98460.00
2022-10-09T17:38:32.251Z,98428.72
2022-10-09T17:41:00.084Z,98393.94
2022-10-09T17:43:28.131Z,98369.53
2022-10-09T17:45:56.048Z,98349.19
2022-10-09T17:48:23.886Z,98335.69
2022-10-09T17:50:52.991Z,98308.53
2022-10-09T17:53:22.582Z,98306.94
2022-10-09T17:55:52.580Z,98297.50
2022-10-09T17:58:21.750Z,98305.22
2022-10-09T18:00:50.960Z,98307.69
2022-10-09T18:03:19.335Z,98300.06
2022-10-09T18:05:49.732Z,98288.19
2022-10-09T18:08:19.887Z,98284.06
2022-10-09T18:10:48.084Z,98251.06
2022-10-09T18:13:17.286Z,98224.84
2022-10-09T18:15:45.280Z,98192.69
2022-10-09T18:18:13.212Z,98167.41
2022-10-09T18:20:41.553Z,98142.03
2022-10-09T18:23:09.948Z,98110.69
2022-10-09T18:25:42.358Z,98079.56
2022-10-09T18:28:10.574Z,98049.19
2022-10-09T18:30:43.465Z,98025.47
2022-10-09T18:33:11.294Z,98015.38
2022-10-09T18:35:40.198Z,98000.13
2022-10-09T18:38:09.412Z,97993.44
2022-10-09T18:40:43.197Z,97995.09
2022-10-09T18:43:13.366Z,98001.06
2022-10-09T18:45:46.330Z,98006.03
2022-10-09T18:48:15.569Z,98027.94
2022-10-09T18:50:44.371Z,98055.88
2022-10-09T18:53:12.857Z,98068.56
2022-10-09T18:55:43.662Z,98071.97
2022-10-09T18:58:13.605Z,98070.28
2022-10-09T19:00:44.216Z,98055.88
2022-10-09T19:03:12.385Z,98047.44
2022-10-09T19:05:40.268Z,98055.16
2022-10-09T19:08:08.166Z,98052.47
2022-10-09T19:10:36.022Z,98065.22
2022-10-09T19:13:04.114Z,98062.66
2022-10-09T19:15:32.144Z,98061.84
2022-10-09T19:18:01.374Z,98060.84
2022-10-09T19:20:29.274Z,98072.78
2022-10-09T19:22:57.088Z,98077.09
2022-10-09T19:25:25.685Z,98058.34
2022-10-09T19:27:53.672Z,98050.72
2022-10-09T19:30:21.580Z,98052.56
2022-10-09T19:32:49.705Z,98043.28
2022-10-09T19:35:19.423Z,98028.88
2022-10-09T19:37:47.716Z,98005.91
2022-10-09T19:40:15.738Z,97986.66
2022-10-09T19:42:43.875Z,97954.50
2022-10-09T19:45:11.987Z,97924.25
2022-10-09T19:47:39.907Z,97883.66
2022-10-09T19:50:08.242Z,97850.00
2022-10-09T19:52:37.436Z,97834.03
2022-10-09T19:55:05.877Z,97806.16
2022-10-09T19:57:33.739Z,97779.94
2022-10-09T20:00:01.627Z,97761.41
2022-10-09T20:02:32.869Z,97739.59
2022-10-09T20:05:00.936Z,97720.16
2022-10-09T20:07:28.914Z,97708.44
2022-10-09T20:09:58.182Z,97700.81
2022-10-09T20:12:26.425Z,97698.25
2022-10-09T20:14:54.218Z,97698.25
2022-10-09T20:17:22.065Z,97707.59
2022-10-09T20:19:51.005Z,97710.91
2022-10-09T20:22:18.864Z,97728.69
2022-10-09T20:24:46.751Z,97752.25
2022-10-09T20:27:16.017Z,97776.63
2022-10-09T20:29:43.815Z,97807.00
2022-10-09T20:32:12.363Z,97821.28
2022-10-09T20:34:40.386Z,97831.47
2022-10-09T20:37:08.324Z,97844.13
2022-10-09T20:39:36.085Z,97846.72
2022-10-09T20:42:04.157Z,97847.44
2022-10-09T20:44:33.447Z,97852.47
2022-10-09T20:47:01.263Z,97857.59
2022-10-09T20:49:29.244Z,97854.09
2022-10-09T20:51:57.319Z,97851.66
2022-10-09T20:54:25.458Z,97852.69
2022-10-09T20:56:53.313Z,97837.34
2022-10-09T20:59:21.251Z,97828.06
2022-10-09T21:01:50.406Z,97807.81
2022-10-09T21:04:18.261Z,97800.28
2022-10-09T21:06:46.378Z,97791.03
2022-10-09T21:09:14.232Z,97781.75
2022-10-09T21:11:43.762Z,97764.09
2022-10-09T21:14:11.819Z,97744.56
2022-10-09T21:16:39.985Z,97732.00
2022-10-09T21:19:11.669Z,97715.09
2022-10-09T21:21:39.544Z,97707.59
2022-10-09T21:24:07.975Z,97703.41
2022-10-09T21:26:37.332Z,97694.94
2022-10-09T21:29:06.394Z,97695.06
2022-10-09T21:31:34.901Z,97697.44
2022-10-09T21:34:03.287Z,97709.34
2022-10-09T21:36:41.033Z,97706.78
2022-10-09T21:39:14.935Z,97701.66
2022-10-09T21:41:42.872Z,97700.00
2022-10-09T21:44:10.719Z,97704.22
2022-10-09T21:46:41.398Z,97711.09
2022-10-09T21:49:16.927Z,97704.41
2022-10-09T21:51:46.270Z,97692.47
2022-10-09T21:54:14.075Z,97685.81
2022-10-09T21:56:41.920Z,97677.38
2022-10-09T21:59:09.902Z,97668.94
2022-10-09T22:01:37.852Z,97657.94
2022-10-09T22:06:40.232Z,97631.06
2022-10-09T22:09:08.020Z,97607.44
2022-10-09T22:11:35.866Z,97594.09
2022-10-09T22:14:03.890Z,97573.72
2022-10-09T22:16:32.067Z,97564.59
2022-10-09T22:18:59.913Z,97546.91
2022-10-09T22:21:27.738Z,97525.84
2022-10-09T22:23:56.971Z,97492.16
2022-10-09T22:26:24.696Z,97461.84
2022-10-09T22:28:52.555Z,97441.72
2022-10-09T22:31:22.188Z,97414.75
2022-10-09T22:34:15.031Z,97395.53
2022-10-09T22:36:42.884Z,97358.38
2022-10-09T22:39:13.276Z,97327.28
2022-10-09T22:41:41.514Z,97307.91
2022-10-09T22:44:10.003Z,97297.13
2022-10-09T22:46:40.235Z,97265.09
2022-10-09T22:49:11.309Z,97251.78
2022-10-09T22:51:39.096Z,97222.25
2022-10-09T22:54:07.655Z,97209.72
2022-10-09T22:56:39.504Z,97182.75
2022-10-09T22:59:09.356Z,97170.25
2022-10-09T23:01:39.954Z,97154.25
2022-10-09T23:04:09.533Z,97143.28
2022-10-09T23:06:37.483Z,97137.47
2022-10-09T23:09:06.710Z,97134.09
2022-10-09T23:11:36.235Z,97140.84
2022-10-09T23:14:04.463Z,97142.59
2022-10-09T23:16:32.664Z,97140.13
2022-10-09T23:19:06.162Z,97129.16
2022-10-09T23:21:35.466Z,97124.03
2022-10-09T23:24:03.263Z,97115.63
2022-10-09T23:26:33.885Z,97105.69
2022-10-09T23:29:05.364Z,97098.91
2022-10-09T23:31:33.834Z,97080.38
2022-10-09T23:34:01.666Z,97075.44
2022-10-09T23:36:30.574Z,97071.38
2022-10-09T23:38:59.121Z,97054.53
2022-10-09T23:41:28.648Z,97036.84
2022-10-09T23:43:56.901Z,97022.59
2022-10-09T23:46:29.195Z,97010.81
2022-10-09T23:48:57.335Z,97003.25
2022-10-09T23:51:27.282Z,96992.28
2022-10-09T23:53:55.638Z,96979.78
2022-10-09T23:56:25.327Z,96971.41
2022-10-09T23:58:54.236Z,96964.84
